sensor_id;sensor_type;location;lat;lon;timestamp;pressure;altitude;pressure_sealevel;temperature;humidity
12785;BME280;6456;42.680;23.260;2023-05-29T00:00:02;94393.97;;;15.34;100.00
12785;BME280;6456;42.680;23.260;2023-05-29T00:02:31;94448.81;;;15.72;100.00
12785;BME280;6456;42.680;23.260;2023-05-29T00:04:59;94452.44;;;15.66;100.00
12785;BME280;6456;42.680;23.260;2023-05-29T00:07:28;94454.06;;;15.67;100.00
12785;BME280;6456;42.680;23.260;2023-05-29T00:09:55;94425.72;;;15.46;100.00
12785;BME280;6456;42.680;23.260;2023-05-29T00:12:22;94452.22;;;15.67;100.00
12785;BME280;6456;42.680;23.260;2023-05-29T00:14:49;94455.34;;;15.64;100.00
12785;BME280;6456;42.680;23.260;2023-05-29T00:17:16;94460.13;;;15.62;100.00
12785;BME280;6456;42.680;23.260;2023-05-29T00:19:43;94431.22;;;15.44;100.00
12785;BME280;6456;42.680;23.260;2023-05-29T00:22:11;94421.72;;;15.26;100.00
12785;BME280;6456;42.680;23.260;2023-05-29T00:24:38;94370.47;;;14.99;100.00
12785;BME280;6456;42.680;23.260;2023-05-29T00:27:05;94463.50;;;15.58;100.00
12785;BME280;6456;42.680;23.260;2023-05-29T00:29:32;94463.50;;;15.58;100.00
12785;BME280;6456;42.680;23.260;2023-05-29T00:32:01;94378.97;;;15.01;100.00
12785;BME280;6456;42.680;23.260;2023-05-29T00:34:28;94451.28;;;15.57;100.00
12785;BME280;6456;42.680;23.260;2023-05-29T00:36:55;94453.88;;;15.52;100.00
12785;BME280;6456;42.680;23.260;2023-05-29T00:39:23;94391.94;;;15.19;100.00
12785;BME280;6456;42.680;23.260;2023-05-29T00:41:50;94399.09;;;15.19;100.00
12785;BME280;6456;42.680;23.260;2023-05-29T00:44:17;94458.16;;;15.53;100.00
12785;BME280;6456;42.680;23.260;2023-05-29T00:46:44;94399.09;;;15.19;100.00
12785;BME280;6456;42.680;23.260;2023-05-29T00:49:12;94432.22;;;15.38;100.00
12785;BME280;6456;42.680;23.260;2023-05-29T00:51:40;94445.91;;;15.52;100.00
12785;BME280;6456;42.680;23.260;2023-05-29T00:54:07;94450.75;;;15.55;100.00
12785;BME280;6456;42.680;23.260;2023-05-29T00:56:38;94435.81;;;15.49;100.00
12785;BME280;6456;42.680;23.260;2023-05-29T00:59:05;94389.28;;;15.19;100.00
12785;BME280;6456;42.680;23.260;2023-05-29T01:01:32;94444.63;;;15.54;100.00
12785;BME280;6456;42.680;23.260;2023-05-29T01:04:03;94435.81;;;15.49;100.00
12785;BME280;6456;42.680;23.260;2023-05-29T01:06:31;94372.22;;;15.10;100.00
12785;BME280;6456;42.680;23.260;2023-05-29T01:08:58;94440.06;;;15.50;100.00
12785;BME280;6456;42.680;23.260;2023-05-29T01:11:31;94422.66;;;15.37;100.00
12785;BME280;6456;42.680;23.260;2023-05-29T01:14:06;94438.34;;;15.43;100.00
12785;BME280;6456;42.680;23.260;2023-05-29T01:16:38;94415.25;;;15.17;100.00
12785;BME280;6456;42.680;23.260;2023-05-29T01:19:30;94450.50;;;15.39;100.00
12785;BME280;6456;42.680;23.260;2023-05-29T01:22:06;94339.81;;;14.65;100.00
12785;BME280;6456;42.680;23.260;2023-05-29T01:24:48;94390.56;;;14.95;100.00
12785;BME280;6456;42.680;23.260;2023-05-29T01:27:19;94444.03;;;15.30;100.00
12785;BME280;6456;42.680;23.260;2023-05-29T01:29:49;94372.97;;;14.67;100.00
12785;BME280;6456;42.680;23.260;2023-05-29T01:32:18;94380.53;;;14.81;100.00
12785;BME280;6456;42.680;23.260;2023-05-29T01:34:45;94385.84;;;14.81;100.00
12785;BME280;6456;42.680;23.260;2023-05-29T01:37:12;94375.91;;;14.71;100.00
12785;BME280;6456;42.680;23.260;2023-05-29T01:39:39;94446.31;;;15.22;100.00
12785;BME280;6456;42.680;23.260;2023-05-29T01:42:06;94449.69;;;15.17;100.00
12785;BME280;6456;42.680;23.260;2023-05-29T01:44:36;94448.06;;;15.16;100.00
12785;BME280;6456;42.680;23.260;2023-05-29T01:47:05;94448.41;;;15.20;100.00
12785;BME280;6456;42.680;23.260;2023-05-29T01:49:33;94372.53;;;14.75;100.00
12785;BME280;6456;42.680;23.260;2023-05-29T01:52:01;94392.63;;;14.93;100.00
12785;BME280;6456;42.680;23.260;2023-05-29T01:54:27;94421.84;;;15.15;100.00
12785;BME280;6456;42.680;23.260;2023-05-29T01:56:55;94427.50;;;15.23;100.00
12785;BME280;6456;42.680;23.260;2023-05-29T01:59:22;94362.72;;;14.93;100.00
12785;BME280;6456;42.680;23.260;2023-05-29T02:01:51;94358.72;;;14.90;100.00
12785;BME280;6456;42.680;23.260;2023-05-29T02:04:17;94449.97;;;15.37;100.00
12785;BME280;6456;42.680;23.260;2023-05-29T02:06:45;94299.91;;;14.50;100.00
12785;BME280;6456;42.680;23.260;2023-05-29T02:09:13;94443.38;;;15.40;100.00
12785;BME280;6456;42.680;23.260;2023-05-29T02:11:41;94442.00;;;15.37;100.00
12785;BME280;6456;42.680;23.260;2023-05-29T02:14:11;94438.06;;;15.40;100.00
12785;BME280;6456;42.680;23.260;2023-05-29T02:16:38;94358.94;;;14.89;100.00
12785;BME280;6456;42.680;23.260;2023-05-29T02:19:07;94405.31;;;15.29;100.00
12785;BME280;6456;42.680;23.260;2023-05-29T02:21:34;94423.25;;;15.44;100.00
12785;BME280;6456;42.680;23.260;2023-05-29T02:24:01;94341.69;;;14.86;100.00
12785;BME280;6456;42.680;23.260;2023-05-29T02:26:28;94437.25;;;15.39;100.00
12785;BME280;6456;42.680;23.260;2023-05-29T02:28:55;94434.53;;;15.34;100.00
12785;BME280;6456;42.680;23.260;2023-05-29T02:31:22;94435.03;;;15.31;100.00
12785;BME280;6456;42.680;23.260;2023-05-29T02:33:49;94437.13;;;15.29;100.00
12785;BME280;6456;42.680;23.260;2023-05-29T02:36:17;94437.94;;;15.30;100.00
12785;BME280;6456;42.680;23.260;2023-05-29T02:38:44;94381.81;;;14.95;100.00
12785;BME280;6456;42.680;23.260;2023-05-29T02:41:11;94320.91;;;14.56;100.00
12785;BME280;6456;42.680;23.260;2023-05-29T02:43:38;94425.78;;;15.12;100.00
12785;BME280;6456;42.680;23.260;2023-05-29T02:46:05;94382.47;;;14.85;100.00
12785;BME280;6456;42.680;23.260;2023-05-29T02:48:32;94439.66;;;15.19;100.00
12785;BME280;6456;42.680;23.260;2023-05-29T02:50:58;94436.44;;;15.17;100.00
12785;BME280;6456;42.680;23.260;2023-05-29T02:53:27;94378.41;;;14.77;100.00
12785;BME280;6456;42.680;23.260;2023-05-29T02:55:53;94438.53;;;15.15;100.00
12785;BME280;6456;42.680;23.260;2023-05-29T02:58:20;94438.28;;;15.17;100.00
12785;BME280;6456;42.680;23.260;2023-05-29T03:00:47;94440.69;;;15.18;100.00
12785;BME280;6456;42.680;23.260;2023-05-29T03:03:15;94397.16;;;14.93;100.00
12785;BME280;6456;42.680;23.260;2023-05-29T03:05:42;94440.19;;;15.21;100.00
12785;BME280;6456;42.680;23.260;2023-05-29T03:08:09;94440.19;;;15.21;100.00
12785;BME280;6456;42.680;23.260;2023-05-29T03:10:37;94442.91;;;15.26;100.00
12785;BME280;6456;42.680;23.260;2023-05-29T03:13:05;94447.19;;;15.27;100.00
12785;BME280;6456;42.680;23.260;2023-05-29T03:15:32;94443.72;;;15.27;100.00
12785;BME280;6456;42.680;23.260;2023-05-29T03:17:59;94431.69;;;15.19;100.00
12785;BME280;6456;42.680;23.260;2023-05-29T03:20:26;94442.63;;;15.23;100.00
12785;BME280;6456;42.680;23.260;2023-05-29T03:22:53;94416.41;;;15.05;100.00
12785;BME280;6456;42.680;23.260;2023-05-29T03:25:22;94373.81;;;14.73;100.00
12785;BME280;6456;42.680;23.260;2023-05-29T03:27:50;94403.00;;;14.95;100.00
12785;BME280;6456;42.680;23.260;2023-05-29T03:30:17;94431.22;;;15.22;100.00
12785;BME280;6456;42.680;23.260;2023-05-29T03:32:45;94443.72;;;15.27;100.00
12785;BME280;6456;42.680;23.260;2023-05-29T03:35:12;94422.19;;;15.23;100.00
12785;BME280;6456;42.680;23.260;2023-05-29T03:37:41;94424.78;;;15.18;100.00
12785;BME280;6456;42.680;23.260;2023-05-29T03:40:09;94386.78;;;14.91;100.00
12785;BME280;6456;42.680;23.260;2023-05-29T03:42:36;94457.38;;;15.35;100.00
12785;BME280;6456;42.680;23.260;2023-05-29T03:45:05;94411.25;;;14.98;100.00
12785;BME280;6456;42.680;23.260;2023-05-29T03:47:32;94394.81;;;14.96;100.00
12785;BME280;6456;42.680;23.260;2023-05-29T03:50:02;94466.50;;;15.45;100.00
12785;BME280;6456;42.680;23.260;2023-05-29T03:52:29;94416.59;;;15.20;100.00
12785;BME280;6456;42.680;23.260;2023-05-29T03:54:56;94372.09;;;15.00;100.00
12785;BME280;6456;42.680;23.260;2023-05-29T03:57:23;94457.81;;;15.49;100.00
12785;BME280;6456;42.680;23.260;2023-05-29T03:59:50;94471.59;;;15.68;100.00
12785;BME280;6456;42.680;23.260;2023-05-29T04:02:18;94469.97;;;15.67;100.00
12785;BME280;6456;42.680;23.260;2023-05-29T04:04:45;94482.56;;;15.76;100.00
12785;BME280;6456;42.680;23.260;2023-05-29T04:07:12;94441.97;;;15.54;100.00
12785;BME280;6456;42.680;23.260;2023-05-29T04:09:39;94483.78;;;15.90;100.00
12785;BME280;6456;42.680;23.260;2023-05-29T04:12:06;94432.28;;;15.65;100.00
12785;BME280;6456;42.680;23.260;2023-05-29T04:14:33;94497.47;;;16.04;100.00
12785;BME280;6456;42.680;23.260;2023-05-29T04:17:00;94462.25;;;15.87;100.00
12785;BME280;6456;42.680;23.260;2023-05-29T04:19:28;94481.88;;;16.08;100.00
12785;BME280;6456;42.680;23.260;2023-05-29T04:21:55;94454.78;;;15.84;100.00
12785;BME280;6456;42.680;23.260;2023-05-29T04:24:22;94377.63;;;15.42;100.00
12785;BME280;6456;42.680;23.260;2023-05-29T04:26:49;94440.66;;;15.78;100.00
12785;BME280;6456;42.680;23.260;2023-05-29T04:29:18;94491.28;;;16.20;100.00
12785;BME280;6456;42.680;23.260;2023-05-29T04:31:45;94479.44;;;16.06;100.00
12785;BME280;6456;42.680;23.260;2023-05-29T04:34:12;94456.03;;;15.98;100.00
12785;BME280;6456;42.680;23.260;2023-05-29T04:36:44;94501.19;;;16.30;100.00
12785;BME280;6456;42.680;23.260;2023-05-29T04:39:11;94502.06;;;16.35;100.00
12785;BME280;6456;42.680;23.260;2023-05-29T04:41:39;94457.72;;;16.09;100.00
12785;BME280;6456;42.680;23.260;2023-05-29T04:44:06;94504.88;;;16.50;100.00
12785;BME280;6456;42.680;23.260;2023-05-29T04:46:33;94415.41;;;15.97;100.00
12785;BME280;6456;42.680;23.260;2023-05-29T04:49:00;94443.00;;;16.23;100.00
12785;BME280;6456;42.680;23.260;2023-05-29T04:51:30;94493.06;;;16.63;100.00
12785;BME280;6456;42.680;23.260;2023-05-29T04:53:58;94502.13;;;16.67;100.00
12785;BME280;6456;42.680;23.260;2023-05-29T04:56:24;94505.03;;;16.65;100.00
12785;BME280;6456;42.680;23.260;2023-05-29T04:58:52;94507.84;;;16.54;100.00
12785;BME280;6456;42.680;23.260;2023-05-29T05:01:18;94507.16;;;16.42;100.00
12785;BME280;6456;42.680;23.260;2023-05-29T05:03:45;94517.44;;;16.33;100.00
12785;BME280;6456;42.680;23.260;2023-05-29T05:06:12;94522.44;;;16.30;100.00
12785;BME280;6456;42.680;23.260;2023-05-29T05:08:42;94524.06;;;16.31;100.00
12785;BME280;6456;42.680;23.260;2023-05-29T05:11:10;94502.66;;;16.16;100.00
12785;BME280;6456;42.680;23.260;2023-05-29T05:13:37;94533.38;;;16.33;100.00
12785;BME280;6456;42.680;23.260;2023-05-29T05:16:04;94540.28;;;16.34;100.00
12785;BME280;6456;42.680;23.260;2023-05-29T05:18:33;94530.03;;;16.21;100.00
12785;BME280;6456;42.680;23.260;2023-05-29T05:21:05;94541.28;;;16.28;100.00
12785;BME280;6456;42.680;23.260;2023-05-29T05:23:32;94540.13;;;16.46;100.00
12785;BME280;6456;42.680;23.260;2023-05-29T05:25:58;94541.56;;;16.53;100.00
12785;BME280;6456;42.680;23.260;2023-05-29T05:28:27;94544.84;;;16.60;100.00
12785;BME280;6456;42.680;23.260;2023-05-29T05:30:53;94549.44;;;16.70;100.00
12785;BME280;6456;42.680;23.260;2023-05-29T05:33:20;94543.31;;;16.70;100.00
12785;BME280;6456;42.680;23.260;2023-05-29T05:35:47;94464.25;;;16.23;100.00
12785;BME280;6456;42.680;23.260;2023-05-29T05:38:14;94473.03;;;16.29;100.00
12785;BME280;6456;42.680;23.260;2023-05-29T05:40:40;94490.19;;;16.43;100.00
12785;BME280;6456;42.680;23.260;2023-05-29T05:43:10;94454.31;;;16.14;100.00
12785;BME280;6456;42.680;23.260;2023-05-29T05:45:38;94542.81;;;16.73;100.00
12785;BME280;6456;42.680;23.260;2023-05-29T05:48:07;94560.16;;;16.80;100.00
12785;BME280;6456;42.680;23.260;2023-05-29T05:50:34;94477.03;;;16.53;100.00
12785;BME280;6456;42.680;23.260;2023-05-29T05:53:01;94548.91;;;17.00;100.00
12785;BME280;6456;42.680;23.260;2023-05-29T05:55:28;94539.09;;;17.00;100.00
12785;BME280;6456;42.680;23.260;2023-05-29T05:57:54;94532.41;;;16.98;100.00
12785;BME280;6456;42.680;23.260;2023-05-29T06:00:22;94555.38;;;17.14;100.00
12785;BME280;6456;42.680;23.260;2023-05-29T06:02:51;94549.34;;;17.18;100.00
12785;BME280;6456;42.680;23.260;2023-05-29T06:05:18;94539.59;;;17.34;100.00
12785;BME280;6456;42.680;23.260;2023-05-29T06:07:45;94553.03;;;17.54;100.00
12785;BME280;6456;42.680;23.260;2023-05-29T06:10:11;94549.63;;;17.64;100.00
12785;BME280;6456;42.680;23.260;2023-05-29T06:12:38;94552.69;;;17.82;100.00
12785;BME280;6456;42.680;23.260;2023-05-29T06:15:06;94549.84;;;18.04;100.00
12785;BME280;6456;42.680;23.260;2023-05-29T06:17:33;94525.09;;;17.99;100.00
12785;BME280;6456;42.680;23.260;2023-05-29T06:20:02;94560.94;;;18.43;100.00
12785;BME280;6456;42.680;23.260;2023-05-29T06:22:34;94507.25;;;18.09;100.00
12785;BME280;6456;42.680;23.260;2023-05-29T06:25:00;94510.78;;;18.20;100.00
12785;BME280;6456;42.680;23.260;2023-05-29T06:27:27;94570.06;;;18.67;100.00
12785;BME280;6456;42.680;23.260;2023-05-29T06:29:54;94576.50;;;18.71;100.00
12785;BME280;6456;42.680;23.260;2023-05-29T06:32:21;94573.00;;;18.66;100.00
12785;BME280;6456;42.680;23.260;2023-05-29T06:34:48;94570.88;;;18.63;100.00
12785;BME280;6456;42.680;23.260;2023-05-29T06:37:16;94554.34;;;18.71;100.00
12785;BME280;6456;42.680;23.260;2023-05-29T06:39:44;94500.22;;;18.50;100.00
12785;BME280;6456;42.680;23.260;2023-05-29T06:42:11;94570.94;;;19.18;100.00
12785;BME280;6456;42.680;23.260;2023-05-29T06:44:38;94571.47;;;19.25;100.00
12785;BME280;6456;42.680;23.260;2023-05-29T06:47:05;94562.66;;;19.60;100.00
12785;BME280;6456;42.680;23.260;2023-05-29T06:49:32;94458.91;;;19.18;100.00
12785;BME280;6456;42.680;23.260;2023-05-29T06:51:59;94528.22;;;19.73;100.00
12785;BME280;6456;42.680;23.260;2023-05-29T06:54:27;94566.81;;;20.26;100.00
12785;BME280;6456;42.680;23.260;2023-05-29T06:56:54;94571.75;;;20.53;100.00
12785;BME280;6456;42.680;23.260;2023-05-29T06:59:22;94567.91;;;20.69;100.00
12785;BME280;6456;42.680;23.260;2023-05-29T07:01:49;94585.91;;;20.59;99.73
12785;BME280;6456;42.680;23.260;2023-05-29T07:04:15;94574.00;;;20.26;100.00
12785;BME280;6456;42.680;23.260;2023-05-29T07:06:42;94501.72;;;19.92;100.00
12785;BME280;6456;42.680;23.260;2023-05-29T07:09:09;94590.16;;;20.60;100.00
12785;BME280;6456;42.680;23.260;2023-05-29T07:11:38;94574.31;;;20.73;100.00
12785;BME280;6456;42.680;23.260;2023-05-29T07:14:04;94512.19;;;20.42;100.00
12785;BME280;6456;42.680;23.260;2023-05-29T07:16:32;94577.78;;;20.79;100.00
12785;BME280;6456;42.680;23.260;2023-05-29T07:18:58;94577.88;;;20.59;100.00
12785;BME280;6456;42.680;23.260;2023-05-29T07:21:25;94578.47;;;20.45;100.00
12785;BME280;6456;42.680;23.260;2023-05-29T07:23:52;94573.03;;;20.61;100.00
12785;BME280;6456;42.680;23.260;2023-05-29T07:26:18;94515.75;;;20.28;100.00
12785;BME280;6456;42.680;23.260;2023-05-29T07:28:47;94544.75;;;20.50;100.00
12785;BME280;6456;42.680;23.260;2023-05-29T07:31:14;94562.31;;;20.66;100.00
12785;BME280;6456;42.680;23.260;2023-05-29T07:33:41;94575.63;;;20.76;100.00
12785;BME280;6456;42.680;23.260;2023-05-29T07:36:08;94492.00;;;20.26;100.00
12785;BME280;6456;42.680;23.260;2023-05-29T07:38:34;94506.84;;;20.42;100.00
12785;BME280;6456;42.680;23.260;2023-05-29T07:41:01;94569.09;;;20.92;100.00
12785;BME280;6456;42.680;23.260;2023-05-29T07:43:28;94560.81;;;20.93;99.53
12785;BME280;6456;42.680;23.260;2023-05-29T07:45:56;94493.44;;;20.53;100.00
12785;BME280;6456;42.680;23.260;2023-05-29T07:48:23;94489.47;;;20.45;95.20
12785;BME280;6456;42.680;23.260;2023-05-29T07:50:50;94572.25;;;21.04;96.15
12785;BME280;6456;42.680;23.260;2023-05-29T07:53:18;94506.34;;;20.79;96.11
12785;BME280;6456;42.680;23.260;2023-05-29T07:55:45;94562.38;;;21.38;93.24
12785;BME280;6456;42.680;23.260;2023-05-29T07:58:12;94552.72;;;21.03;92.70
12785;BME280;6456;42.680;23.260;2023-05-29T08:00:39;94563.97;;;21.05;94.65
12785;BME280;6456;42.680;23.260;2023-05-29T08:03:07;94468.41;;;20.38;94.33
12785;BME280;6456;42.680;23.260;2023-05-29T08:05:34;94508.66;;;20.52;93.47
12785;BME280;6456;42.680;23.260;2023-05-29T08:08:00;94568.75;;;20.65;94.54
12785;BME280;6456;42.680;23.260;2023-05-29T08:10:27;94483.00;;;19.92;97.34
12785;BME280;6456;42.680;23.260;2023-05-29T08:12:54;94563.31;;;20.31;100.00
12785;BME280;6456;42.680;23.260;2023-05-29T08:15:21;94555.00;;;20.22;96.89
12785;BME280;6456;42.680;23.260;2023-05-29T08:17:49;94567.69;;;20.61;95.74
12785;BME280;6456;42.680;23.260;2023-05-29T08:20:17;94468.47;;;20.28;95.89
12785;BME280;6456;42.680;23.260;2023-05-29T08:22:44;94474.28;;;20.35;94.39
12785;BME280;6456;42.680;23.260;2023-05-29T08:25:11;94577.66;;;20.99;94.88
12785;BME280;6456;42.680;23.260;2023-05-29T08:27:38;94569.97;;;20.82;95.05
12785;BME280;6456;42.680;23.260;2023-05-29T08:30:06;94585.88;;;20.64;95.96
12785;BME280;6456;42.680;23.260;2023-05-29T08:32:33;94573.31;;;20.64;96.43
12785;BME280;6456;42.680;23.260;2023-05-29T08:34:59;94582.56;;;20.77;95.09
12785;BME280;6456;42.680;23.260;2023-05-29T08:37:28;94513.34;;;20.31;93.94
12785;BME280;6456;42.680;23.260;2023-05-29T08:39:55;94496.69;;;20.39;93.16
12785;BME280;6456;42.680;23.260;2023-05-29T08:42:28;94576.28;;;21.01;93.36
12785;BME280;6456;42.680;23.260;2023-05-29T08:45:02;94506.72;;;20.63;92.50
12785;BME280;6456;42.680;23.260;2023-05-29T08:47:32;94568.22;;;21.45;92.37
12785;BME280;6456;42.680;23.260;2023-05-29T08:50:00;94556.28;;;21.90;88.31
12785;BME280;6456;42.680;23.260;2023-05-29T08:52:33;94539.13;;;22.15;86.71
12785;BME280;6456;42.680;23.260;2023-05-29T08:55:02;94554.34;;;22.43;86.68
12785;BME280;6456;42.680;23.260;2023-05-29T08:57:29;94556.09;;;22.53;85.41
12785;BME280;6456;42.680;23.260;2023-05-29T08:59:56;94552.78;;;22.61;84.33
12785;BME280;6456;42.680;23.260;2023-05-29T09:02:23;94544.41;;;22.44;82.28
12785;BME280;6456;42.680;23.260;2023-05-29T09:04:50;94500.47;;;21.97;81.34
12785;BME280;6456;42.680;23.260;2023-05-29T09:07:18;94536.75;;;22.13;84.87
12785;BME280;6456;42.680;23.260;2023-05-29T09:09:47;94540.56;;;22.31;83.85
12785;BME280;6456;42.680;23.260;2023-05-29T09:12:14;94490.00;;;22.01;83.74
12785;BME280;6456;42.680;23.260;2023-05-29T09:14:42;94502.09;;;21.98;78.28
12785;BME280;6456;42.680;23.260;2023-05-29T09:17:10;94536.91;;;21.98;77.43
12785;BME280;6456;42.680;23.260;2023-05-29T09:19:38;94522.69;;;21.74;78.10
12785;BME280;6456;42.680;23.260;2023-05-29T09:22:07;94524.63;;;21.68;79.90
12785;BME280;6456;42.680;23.260;2023-05-29T09:24:36;94517.75;;;21.57;82.01
12785;BME280;6456;42.680;23.260;2023-05-29T09:27:05;94530.59;;;21.60;80.29
12785;BME280;6456;42.680;23.260;2023-05-29T09:29:36;94516.75;;;21.77;77.04
12785;BME280;6456;42.680;23.260;2023-05-29T09:32:06;94513.50;;;22.09;75.35
12785;BME280;6456;42.680;23.260;2023-05-29T09:34:34;94466.38;;;22.26;78.16
12785;BME280;6456;42.680;23.260;2023-05-29T09:37:01;94506.56;;;22.69;74.24
12785;BME280;6456;42.680;23.260;2023-05-29T09:39:34;94509.66;;;22.15;75.22
12785;BME280;6456;42.680;23.260;2023-05-29T09:42:01;94497.41;;;21.85;75.94
12785;BME280;6456;42.680;23.260;2023-05-29T09:44:30;94501.47;;;21.78;76.29
12785;BME280;6456;42.680;23.260;2023-05-29T09:46:58;94499.47;;;21.64;78.86
12785;BME280;6456;42.680;23.260;2023-05-29T09:49:25;94474.81;;;21.44;78.57
12785;BME280;6456;42.680;23.260;2023-05-29T09:51:53;94444.16;;;21.55;78.73
12785;BME280;6456;42.680;23.260;2023-05-29T09:54:20;94466.28;;;21.65;74.94
12785;BME280;6456;42.680;23.260;2023-05-29T09:56:47;94490.06;;;21.96;78.78
12785;BME280;6456;42.680;23.260;2023-05-29T09:59:15;94482.72;;;22.06;78.17
12785;BME280;6456;42.680;23.260;2023-05-29T10:01:44;94488.28;;;22.10;78.62
12785;BME280;6456;42.680;23.260;2023-05-29T10:04:11;94474.06;;;21.91;76.62
12785;BME280;6456;42.680;23.260;2023-05-29T10:06:41;94473.44;;;21.70;76.19
12785;BME280;6456;42.680;23.260;2023-05-29T10:09:16;94483.00;;;21.52;76.27
12785;BME280;6456;42.680;23.260;2023-05-29T10:11:47;94473.25;;;21.66;74.03
12785;BME280;6456;42.680;23.260;2023-05-29T10:14:18;94481.72;;;21.73;77.04
12785;BME280;6456;42.680;23.260;2023-05-29T10:16:49;94483.78;;;21.82;75.84
12785;BME280;6456;42.680;23.260;2023-05-29T10:19:21;94460.13;;;21.41;77.96
12785;BME280;6456;42.680;23.260;2023-05-29T10:21:51;94482.91;;;21.62;77.42
12785;BME280;6456;42.680;23.260;2023-05-29T10:24:21;94422.22;;;21.53;77.73
12785;BME280;6456;42.680;23.260;2023-05-29T10:26:49;94476.66;;;22.38;81.43
12785;BME280;6456;42.680;23.260;2023-05-29T10:29:20;94468.28;;;22.63;74.66
12785;BME280;6456;42.680;23.260;2023-05-29T10:32:07;94466.75;;;22.94;74.00
12785;BME280;6456;42.680;23.260;2023-05-29T10:34:42;94459.53;;;23.09;72.46
12785;BME280;6456;42.680;23.260;2023-05-29T10:37:23;94396.38;;;22.28;71.65
12785;BME280;6456;42.680;23.260;2023-05-29T10:39:52;94420.72;;;22.13;72.59
12785;BME280;6456;42.680;23.260;2023-05-29T10:42:41;94467.03;;;22.56;71.74
12785;BME280;6456;42.680;23.260;2023-05-29T10:45:09;94474.22;;;22.79;70.70
12785;BME280;6456;42.680;23.260;2023-05-29T10:47:38;94470.38;;;22.85;68.15
12785;BME280;6456;42.680;23.260;2023-05-29T10:50:06;94468.84;;;22.60;68.17
12785;BME280;6456;42.680;23.260;2023-05-29T10:52:32;94458.59;;;22.25;68.31
12785;BME280;6456;42.680;23.260;2023-05-29T10:54:59;94450.94;;;22.37;72.54
12785;BME280;6456;42.680;23.260;2023-05-29T10:57:29;94422.13;;;22.29;69.00
12785;BME280;6456;42.680;23.260;2023-05-29T11:00:06;94437.63;;;22.69;68.18
12785;BME280;6456;42.680;23.260;2023-05-29T11:02:40;94432.78;;;22.71;69.03
12785;BME280;6456;42.680;23.260;2023-05-29T11:05:21;94430.84;;;22.90;67.47
12785;BME280;6456;42.680;23.260;2023-05-29T11:07:55;94363.25;;;22.56;67.65
12785;BME280;6456;42.680;23.260;2023-05-29T11:10:41;94433.94;;;22.97;66.11
12785;BME280;6456;42.680;23.260;2023-05-29T11:13:09;94433.28;;;23.06;65.74
12785;BME280;6456;42.680;23.260;2023-05-29T11:15:37;94432.28;;;23.02;64.05
12785;BME280;6456;42.680;23.260;2023-05-29T11:18:08;94424.66;;;23.09;65.28
12785;BME280;6456;42.680;23.260;2023-05-29T11:20:43;94421.13;;;23.27;65.73
12785;BME280;6456;42.680;23.260;2023-05-29T11:23:16;94326.00;;;22.73;67.28
12785;BME280;6456;42.680;23.260;2023-05-29T11:25:45;94402.75;;;23.61;69.30
12785;BME280;6456;42.680;23.260;2023-05-29T11:28:13;94405.16;;;23.76;66.00
12785;BME280;6456;42.680;23.260;2023-05-29T11:30:42;94331.81;;;23.35;70.90
12785;BME280;6456;42.680;23.260;2023-05-29T11:33:23;94400.34;;;24.00;73.42
12785;BME280;6456;42.680;23.260;2023-05-29T11:35:57;94411.00;;;24.05;69.90
12785;BME280;6456;42.680;23.260;2023-05-29T11:38:25;94381.56;;;23.87;67.12
12785;BME280;6456;42.680;23.260;2023-05-29T11:40:54;94392.69;;;23.94;69.10
12785;BME280;6456;42.680;23.260;2023-05-29T11:43:21;94364.06;;;23.89;69.92
12785;BME280;6456;42.680;23.260;2023-05-29T11:45:48;94339.38;;;23.87;70.94
12785;BME280;6456;42.680;23.260;2023-05-29T11:48:16;94345.59;;;24.10;72.48
12785;BME280;6456;42.680;23.260;2023-05-29T11:50:43;94402.09;;;24.68;71.87
12785;BME280;6456;42.680;23.260;2023-05-29T11:53:11;94375.84;;;24.73;68.21
12785;BME280;6456;42.680;23.260;2023-05-29T11:55:38;94341.47;;;24.70;66.62
12785;BME280;6456;42.680;23.260;2023-05-29T11:58:06;94353.38;;;24.69;60.91
12785;BME280;6456;42.680;23.260;2023-05-29T12:00:35;94397.59;;;24.99;61.82
12785;BME280;6456;42.680;23.260;2023-05-29T12:03:03;94394.72;;;24.96;65.17
12785;BME280;6456;42.680;23.260;2023-05-29T12:05:32;94343.38;;;24.26;66.72
12785;BME280;6456;42.680;23.260;2023-05-29T12:08:00;94344.84;;;23.82;65.86
12785;BME280;6456;42.680;23.260;2023-05-29T12:10:30;94291.53;;;23.08;66.24
12785;BME280;6456;42.680;23.260;2023-05-29T12:12:58;94355.97;;;23.21;70.01
12785;BME280;6456;42.680;23.260;2023-05-29T12:15:26;94293.53;;;22.56;72.42
12785;BME280;6456;42.680;23.260;2023-05-29T12:17:54;94350.88;;;23.06;73.76
12785;BME280;6456;42.680;23.260;2023-05-29T12:20:25;94403.53;;;23.34;79.98
12785;BME280;6456;42.680;23.260;2023-05-29T12:22:58;94349.25;;;22.78;82.90
12785;BME280;6456;42.680;23.260;2023-05-29T12:25:26;94386.59;;;22.37;86.48
12785;BME280;6456;42.680;23.260;2023-05-29T12:27:55;94318.50;;;21.63;89.43
12785;BME280;6456;42.680;23.260;2023-05-29T12:30:24;94446.28;;;22.05;93.32
12785;BME280;6456;42.680;23.260;2023-05-29T12:32:52;94413.41;;;21.52;99.46
12785;BME280;6456;42.680;23.260;2023-05-29T12:35:20;94416.47;;;21.41;100.00
12785;BME280;6456;42.680;23.260;2023-05-29T12:37:49;94451.69;;;21.53;100.00
12785;BME280;6456;42.680;23.260;2023-05-29T12:40:19;94366.63;;;20.92;100.00
12785;BME280;6456;42.680;23.260;2023-05-29T12:42:47;94402.13;;;21.03;100.00
12785;BME280;6456;42.680;23.260;2023-05-29T12:45:15;94448.28;;;21.19;100.00
12785;BME280;6456;42.680;23.260;2023-05-29T12:47:51;94421.13;;;21.01;100.00
12785;BME280;6456;42.680;23.260;2023-05-29T12:50:26;94459.00;;;21.19;100.00
12785;BME280;6456;42.680;23.260;2023-05-29T12:52:57;94450.16;;;21.18;100.00
12785;BME280;6456;42.680;23.260;2023-05-29T12:55:26;94365.47;;;20.75;100.00
12785;BME280;6456;42.680;23.260;2023-05-29T12:57:54;94412.31;;;21.01;100.00